createdAt,value
2017-11-17T00:00:44.308Z,182.80
2017-11-17T00:02:37.124Z,198.20
2017-11-17T00:03:37.039Z,187.40
2017-11-17T00:05:30.310Z,146.30
2017-11-17T00:06:30.242Z,162.40
2017-11-17T00:08:23.572Z,143.50
2017-11-17T00:09:23.488Z,149.00
2017-11-17T00:11:16.763Z,122.50
2017-11-17T00:12:16.688Z,123.40
2017-11-17T00:14:09.550Z,118.90
2017-11-17T00:15:09.526Z,115.20
2017-11-17T00:17:02.718Z,135.60
2017-11-17T00:18:02.633Z,139.90
2017-11-17T00:19:55.892Z,132.30
2017-11-17T00:20:55.822Z,118.70
2017-11-17T00:22:49.106Z,130.20
2017-11-17T00:23:49.018Z,134.00
2017-11-17T00:25:42.280Z,113.90
2017-11-17T00:26:42.218Z,113.50
2017-11-17T00:28:35.489Z,111.50
2017-11-17T00:29:35.392Z,115.90
2017-11-17T00:31:28.653Z,120.10
2017-11-17T00:32:28.586Z,112.10
2017-11-17T00:34:21.868Z,98.90
2017-11-17T00:35:21.777Z,111.00
2017-11-17T00:37:15.056Z,131.70
2017-11-17T00:38:14.970Z,131.70
2017-11-17T00:40:08.230Z,117.00
2017-11-17T00:41:08.162Z,101.20
2017-11-17T00:43:01.430Z,119.30
2017-11-17T00:44:01.354Z,120.30
2017-11-17T00:45:54.606Z,107.30
2017-11-17T00:46:54.537Z,101.50
2017-11-17T00:48:47.818Z,99.20
2017-11-17T00:49:47.731Z,99.20
2017-11-17T00:51:41.032Z,85.80
2017-11-17T00:52:40.962Z,86.40
2017-11-17T00:54:34.242Z,97.40
2017-11-17T00:55:34.158Z,87.40
2017-11-17T00:57:27.443Z,77.70
2017-11-17T00:58:27.352Z,74.80
2017-11-17T01:00:20.612Z,76.30
2017-11-17T01:01:20.547Z,80.50
2017-11-17T01:03:13.828Z,76.70
2017-11-17T01:04:13.742Z,80.30
2017-11-17T01:06:06.999Z,70.80
2017-11-17T01:07:06.930Z,74.10
2017-11-17T01:09:00.239Z,68.30
2017-11-17T01:10:00.114Z,68.10
2017-11-17T01:11:53.377Z,58.60
2017-11-17T01:12:53.308Z,57.20
2017-11-17T01:14:46.586Z,58.60
2017-11-17T01:15:46.501Z,54.00
2017-11-17T01:17:39.788Z,58.90
2017-11-17T01:18:39.690Z,58.70
2017-11-17T01:20:32.944Z,62.50
2017-11-17T01:21:32.874Z,63.30
2017-11-17T01:23:26.153Z,65.30
2017-11-17T01:24:26.072Z,55.50
2017-11-17T01:26:19.374Z,60.10
2017-11-17T01:27:19.363Z,53.50
2017-11-17T01:29:12.823Z,59.70
2017-11-17T01:30:12.563Z,61.50
2017-11-17T01:32:05.845Z,56.40
2017-11-17T01:33:05.846Z,58.80
2017-11-17T01:34:59.985Z,46.80
2017-11-17T01:35:59.845Z,56.00
2017-11-17T01:37:53.182Z,46.50
2017-11-17T01:38:53.029Z,49.70
2017-11-17T01:40:46.376Z,52.80
2017-11-17T01:41:46.309Z,54.20
2017-11-17T01:43:39.636Z,49.80
2017-11-17T01:44:39.551Z,47.10
2017-11-17T01:46:32.759Z,44.10
2017-11-17T01:47:32.692Z,42.40
2017-11-17T01:49:25.967Z,45.10
2017-11-17T01:50:25.876Z,37.70
2017-11-17T01:52:19.139Z,40.30
2017-11-17T01:53:19.075Z,43.80
2017-11-17T01:55:12.393Z,38.90
2017-11-17T01:56:12.306Z,36.30
2017-11-17T01:58:05.584Z,40.30
2017-11-17T01:59:05.495Z,38.60
2017-11-17T02:00:58.760Z,38.60
2017-11-17T02:01:58.695Z,36.00
2017-11-17T02:03:51.974Z,36.70
2017-11-17T02:04:51.886Z,41.00
2017-11-17T02:06:45.146Z,41.00
2017-11-17T02:07:45.079Z,36.30
2017-11-17T02:09:38.395Z,44.80
2017-11-17T02:10:38.302Z,42.00
2017-11-17T02:12:31.572Z,41.30
2017-11-17T02:13:31.500Z,37.70
2017-11-17T02:15:24.779Z,32.10
2017-11-17T02:16:24.694Z,39.90
2017-11-17T02:18:17.977Z,36.10
2017-11-17T02:19:17.887Z,37.60
2017-11-17T02:21:11.147Z,37.10
2017-11-17T02:22:11.080Z,35.80
2017-11-17T02:24:04.397Z,31.90
2017-11-17T02:25:04.302Z,32.50
2017-11-17T02:26:57.568Z,32.70
2017-11-17T02:27:57.499Z,35.40
2017-11-17T02:29:50.780Z,32.20
2017-11-17T02:30:50.695Z,40.80
2017-11-17T02:32:43.958Z,30.80
2017-11-17T02:33:43.885Z,33.60
2017-11-17T02:35:37.165Z,32.10
2017-11-17T02:36:37.076Z,32.20
2017-11-17T02:38:30.451Z,34.70
2017-11-17T02:39:30.302Z,39.10
2017-11-17T02:41:23.563Z,31.60
2017-11-17T02:42:23.547Z,28.80
2017-11-17T02:44:16.773Z,33.10
2017-11-17T02:45:16.689Z,29.90
2017-11-17T02:47:09.950Z,28.90
2017-11-17T02:48:09.881Z,35.00
2017-11-17T02:50:03.201Z,28.00
2017-11-17T02:51:03.070Z,34.20
2017-11-17T02:52:56.404Z,35.90
2017-11-17T02:53:56.302Z,30.60
2017-11-17T02:55:50.554Z,31.70
2017-11-17T02:56:50.484Z,31.20
2017-11-17T02:58:43.837Z,28.90
2017-11-17T02:59:43.748Z,28.50
2017-11-17T03:01:37.008Z,25.80
2017-11-17T03:02:36.937Z,22.90
2017-11-17T03:04:30.220Z,33.30
2017-11-17T03:05:30.129Z,36.40
2017-11-17T03:07:23.389Z,34.20
2017-11-17T03:08:23.322Z,30.30
2017-11-17T03:10:16.620Z,28.00
2017-11-17T03:11:16.530Z,32.50
2017-11-17T03:13:09.872Z,31.10
2017-11-17T03:14:09.780Z,33.20
2017-11-17T03:16:02.575Z,30.20
2017-11-17T03:17:02.503Z,32.20
2017-11-17T03:18:55.373Z,35.20
2017-11-17T03:19:55.225Z,32.60
2017-11-17T03:21:48.482Z,34.20
2017-11-17T03:22:48.414Z,30.30
2017-11-17T03:24:41.690Z,37.10
2017-11-17T03:25:41.603Z,34.10
2017-11-17T03:27:34.865Z,29.30
2017-11-17T03:28:34.795Z,26.90
2017-11-17T03:30:28.082Z,27.20
2017-11-17T03:31:27.983Z,29.90
2017-11-17T03:33:21.266Z,32.90
2017-11-17T03:34:21.175Z,35.60
2017-11-17T03:36:14.433Z,37.20
2017-11-17T03:37:14.365Z,31.00
2017-11-17T03:39:07.635Z,26.60
2017-11-17T03:40:07.547Z,29.30
2017-11-17T03:42:00.803Z,45.60
2017-11-17T03:43:00.734Z,41.00
2017-11-17T03:44:54.084Z,43.70
2017-11-17T03:45:53.996Z,40.00
2017-11-17T03:47:48.244Z,44.90
2017-11-17T03:48:48.170Z,37.00
2017-11-17T03:50:41.461Z,38.80
2017-11-17T03:51:41.363Z,36.90
2017-11-17T03:53:34.639Z,42.80
2017-11-17T03:54:34.553Z,38.50
2017-11-17T03:56:27.811Z,33.90
2017-11-17T03:57:27.741Z,36.40
2017-11-17T03:59:21.023Z,40.80
2017-11-17T04:00:20.922Z,43.00
2017-11-17T04:02:14.179Z,41.00
2017-11-17T04:03:14.111Z,44.30
2017-11-17T04:05:07.413Z,47.00
2017-11-17T04:06:07.325Z,37.10
2017-11-17T04:08:00.585Z,38.90
2017-11-17T04:09:00.514Z,36.60
2017-11-17T04:10:53.794Z,40.80
2017-11-17T04:11:53.705Z,36.20
2017-11-17T04:13:46.981Z,34.90
2017-11-17T04:14:46.894Z,34.20
2017-11-17T04:16:40.151Z,33.40
2017-11-17T04:17:40.081Z,33.10
2017-11-17T04:19:33.388Z,24.20
2017-11-17T04:20:33.302Z,34.80
2017-11-17T04:22:26.558Z,35.20
2017-11-17T04:23:26.490Z,35.20
2017-11-17T04:25:19.767Z,36.10
2017-11-17T04:26:19.678Z,32.00
2017-11-17T04:28:12.937Z,37.10
2017-11-17T04:29:12.866Z,34.10
2017-11-17T04:31:06.141Z,40.50
2017-11-17T04:32:06.055Z,41.00
2017-11-17T04:33:59.389Z,35.60
2017-11-17T04:34:59.301Z,36.30
2017-11-17T04:36:52.557Z,40.70
2017-11-17T04:37:52.491Z,36.50
2017-11-17T04:39:45.756Z,47.00
2017-11-17T04:40:45.671Z,38.70
2017-11-17T04:42:38.928Z,37.60
2017-11-17T04:43:38.859Z,34.40
2017-11-17T04:45:32.136Z,30.90
2017-11-17T04:46:32.048Z,39.40
2017-11-17T04:48:25.375Z,40.80
2017-11-17T04:49:25.300Z,43.20
2017-11-17T04:51:18.575Z,35.30
2017-11-17T04:52:18.490Z,34.20
2017-11-17T04:54:11.772Z,34.30
2017-11-17T04:55:11.681Z,35.80
2017-11-17T04:57:04.939Z,37.60
2017-11-17T04:58:04.902Z,37.90
2017-11-17T04:59:58.145Z,35.30
2017-11-17T05:00:58.058Z,38.50
2017-11-17T05:02:51.373Z,40.40
2017-11-17T05:03:51.304Z,37.70
2017-11-17T05:05:44.576Z,32.40
2017-11-17T05:06:44.490Z,40.20
2017-11-17T05:08:37.756Z,33.70
2017-11-17T05:09:37.687Z,41.10
2017-11-17T05:11:31.051Z,39.20
2017-11-17T05:12:30.873Z,43.80
2017-11-17T05:14:24.149Z,35.10
2017-11-17T05:15:24.061Z,39.80
2017-11-17T05:17:17.372Z,38.00
2017-11-17T05:18:17.302Z,37.90
2017-11-17T05:20:10.604Z,51.00
2017-11-17T05:21:10.489Z,48.00
2017-11-17T05:23:03.747Z,36.90
2017-11-17T05:24:03.677Z,39.80
2017-11-17T05:25:56.953Z,39.30
2017-11-17T05:26:56.865Z,41.50
2017-11-17T05:28:50.121Z,38.00
2017-11-17T05:29:50.052Z,42.40
2017-11-17T05:31:43.391Z,41.30
2017-11-17T05:32:43.303Z,34.60
2017-11-17T05:34:36.574Z,44.80
2017-11-17T05:35:36.490Z,51.50
2017-11-17T05:37:30.748Z,43.70
2017-11-17T05:38:30.671Z,44.50
2017-11-17T05:40:23.950Z,46.40
2017-11-17T05:41:23.858Z,45.90
2017-11-17T05:43:17.117Z,43.50
2017-11-17T05:44:17.048Z,43.80
2017-11-17T05:46:10.326Z,48.60
2017-11-17T05:47:10.237Z,41.10
2017-11-17T05:49:03.485Z,48.90
2017-11-17T05:50:03.415Z,47.20
2017-11-17T05:51:56.705Z,46.00
2017-11-17T05:52:56.602Z,42.40
2017-11-17T05:54:49.878Z,45.70
2017-11-17T05:55:49.790Z,38.10
2017-11-17T05:57:43.045Z,48.30
2017-11-17T05:58:42.970Z,49.70
2017-11-17T06:00:36.250Z,44.10
2017-11-17T06:01:36.160Z,39.70
2017-11-17T06:03:29.420Z,39.90
2017-11-17T06:04:29.349Z,38.10
2017-11-17T06:06:22.640Z,38.80
2017-11-17T06:07:22.554Z,43.70
2017-11-17T06:09:15.796Z,34.30
2017-11-17T06:10:15.725Z,46.80
2017-11-17T06:12:09.004Z,42.80
2017-11-17T06:13:08.913Z,43.40
2017-11-17T06:15:02.188Z,43.80
2017-11-17T06:16:02.100Z,41.10
2017-11-17T06:17:55.357Z,42.30
2017-11-17T06:18:55.303Z,37.50
2017-11-17T06:20:48.559Z,47.60
2017-11-17T06:21:48.472Z,49.20
2017-11-17T06:23:41.727Z,50.10
2017-11-17T06:24:41.665Z,36.60
2017-11-17T06:26:34.931Z,33.30
2017-11-17T06:27:34.858Z,41.10
2017-11-17T06:29:28.100Z,41.70
2017-11-17T06:30:28.032Z,37.60
2017-11-17T06:32:21.311Z,34.20
2017-11-17T06:33:21.222Z,39.30
2017-11-17T06:35:14.543Z,37.40
2017-11-17T06:36:14.406Z,37.20
2017-11-17T06:38:07.688Z,39.40
2017-11-17T06:39:07.612Z,42.00
2017-11-17T06:41:00.888Z,32.80
2017-11-17T06:42:00.801Z,37.10
2017-11-17T06:43:54.054Z,41.40
2017-11-17T06:44:53.984Z,44.40
2017-11-17T06:46:47.257Z,41.00
2017-11-17T06:47:47.170Z,42.70
2017-11-17T06:49:40.440Z,36.70
2017-11-17T06:50:40.347Z,40.50
2017-11-17T06:52:33.625Z,45.40
2017-11-17T06:53:33.536Z,37.00
2017-11-17T06:55:26.875Z,41.60
2017-11-17T06:56:26.721Z,35.40
2017-11-17T06:58:19.974Z,32.00
2017-11-17T06:59:19.907Z,36.40
2017-11-17T07:01:13.186Z,33.50
2017-11-17T07:02:13.091Z,37.30
2017-11-17T07:04:06.374Z,41.50
2017-11-17T07:05:06.302Z,36.60
2017-11-17T07:06:59.580Z,33.80
2017-11-17T07:07:59.489Z,38.60
2017-11-17T07:09:52.749Z,29.90
2017-11-17T07:10:52.683Z,34.60
2017-11-17T07:12:45.952Z,36.80
2017-11-17T07:13:45.863Z,40.60
2017-11-17T07:15:39.131Z,38.30
2017-11-17T07:16:39.044Z,41.80
2017-11-17T07:18:32.373Z,36.50
2017-11-17T07:19:32.301Z,35.30
2017-11-17T07:21:25.575Z,37.20
2017-11-17T07:22:25.488Z,39.60
2017-11-17T07:24:18.742Z,31.60
2017-11-17T07:25:18.674Z,37.50
2017-11-17T07:27:11.946Z,35.40
2017-11-17T07:28:11.858Z,37.10
2017-11-17T07:30:05.116Z,36.80
2017-11-17T07:31:05.049Z,34.10
2017-11-17T07:32:58.391Z,39.80
2017-11-17T07:33:58.306Z,40.30
2017-11-17T07:35:51.576Z,36.20
2017-11-17T07:36:51.486Z,32.80
2017-11-17T07:38:44.742Z,33.90
2017-11-17T07:39:44.674Z,36.00
2017-11-17T07:41:37.946Z,45.90
2017-11-17T07:42:37.855Z,43.80
2017-11-17T07:44:31.116Z,40.40
2017-11-17T07:45:31.044Z,38.30
2017-11-17T07:47:24.399Z,39.40
2017-11-17T07:48:24.301Z,38.40
2017-11-17T07:50:17.557Z,31.70
2017-11-17T07:51:17.480Z,35.40
2017-11-17T07:53:10.746Z,30.90
2017-11-17T07:54:10.658Z,36.60
2017-11-17T07:56:03.918Z,27.90
2017-11-17T07:57:03.829Z,34.60
2017-11-17T07:58:57.153Z,28.10
2017-11-17T07:59:57.006Z,26.20
2017-11-17T08:01:50.273Z,26.90
2017-11-17T08:02:50.181Z,26.00
2017-11-17T08:04:43.424Z,24.40
2017-11-17T08:05:43.356Z,23.40
2017-11-17T08:07:36.632Z,20.00
2017-11-17T08:08:36.547Z,24.60
2017-11-17T08:10:29.810Z,24.40
2017-11-17T08:11:29.726Z,19.20
2017-11-17T08:13:22.972Z,14.00
2017-11-17T08:14:22.907Z,14.50
2017-11-17T08:16:17.169Z,16.20
2017-11-17T08:17:17.082Z,19.20
2017-11-17T08:19:10.376Z,18.40
2017-11-17T08:20:10.310Z,15.50
2017-11-17T08:22:03.589Z,13.90
2017-11-17T08:23:03.503Z,14.30
2017-11-17T08:24:57.754Z,12.30
2017-11-17T08:25:57.697Z,11.00
2017-11-17T08:27:50.956Z,18.50
2017-11-17T08:28:50.877Z,14.80
2017-11-17T08:30:44.155Z,14.50
2017-11-17T08:31:44.070Z,13.70
2017-11-17T08:33:37.326Z,10.00
2017-11-17T08:34:37.259Z,10.90
2017-11-17T08:36:30.533Z,10.70
2017-11-17T08:37:30.448Z,13.00
2017-11-17T08:39:23.709Z,15.40
2017-11-17T08:40:23.646Z,14.80
2017-11-17T08:42:16.918Z,17.40
2017-11-17T08:43:16.835Z,17.30
2017-11-17T08:45:10.091Z,18.20
2017-11-17T08:46:10.025Z,15.60
2017-11-17T08:48:03.302Z,13.40
2017-11-17T08:49:03.217Z,17.60
2017-11-17T08:50:56.495Z,15.70
2017-11-17T08:51:56.409Z,14.60
2017-11-17T08:53:49.668Z,15.10
2017-11-17T08:54:49.591Z,14.50
2017-11-17T08:56:42.876Z,13.50
2017-11-17T08:57:42.791Z,13.00
2017-11-17T08:59:36.043Z,12.80
2017-11-17T09:00:35.987Z,11.70
2017-11-17T09:02:29.270Z,11.90
2017-11-17T09:03:29.185Z,9.90
2017-11-17T09:05:22.455Z,13.80
2017-11-17T09:06:22.392Z,14.20
2017-11-17T09:08:15.673Z,12.10
2017-11-17T09:09:15.586Z,15.50
2017-11-17T09:11:08.891Z,14.50
2017-11-17T09:12:08.782Z,12.00
2017-11-17T09:14:02.045Z,14.20
2017-11-17T09:15:01.982Z,15.50
2017-11-17T09:16:55.257Z,14.90
2017-11-17T09:17:55.176Z,12.60
2017-11-17T09:19:48.601Z,13.40
2017-11-17T09:20:48.543Z,15.30
2017-11-17T09:22:41.823Z,14.50
2017-11-17T09:23:41.740Z,14.90
2017-11-17T09:25:35.006Z,11.10
2017-11-17T09:26:34.941Z,15.10
2017-11-17T09:28:28.235Z,11.70
2017-11-17T09:29:28.153Z,15.30
2017-11-17T09:31:21.439Z,13.30
2017-11-17T09:32:21.362Z,10.40
2017-11-17T09:34:14.624Z,16.40
2017-11-17T09:35:14.561Z,14.40
2017-11-17T09:37:07.847Z,15.90
2017-11-17T09:38:07.765Z,15.40
2017-11-17T09:40:01.044Z,13.30
2017-11-17T09:41:00.978Z,18.50
2017-11-17T09:42:54.264Z,9.30
2017-11-17T09:43:54.188Z,9.20
2017-11-17T09:45:47.449Z,15.00
2017-11-17T09:46:47.389Z,9.10
2017-11-17T09:48:41.670Z,14.30
2017-11-17T09:49:41.592Z,12.90
2017-11-17T09:51:34.859Z,14.20
2017-11-17T09:52:34.794Z,13.90
2017-11-17T09:54:28.090Z,17.60
2017-11-17T09:55:28.008Z,15.00
2017-11-17T09:57:21.299Z,16.50
2017-11-17T09:58:21.223Z,15.70
2017-11-17T10:00:14.498Z,11.90
2017-11-17T10:01:14.437Z,11.40
2017-11-17T10:03:07.733Z,14.30
2017-11-17T10:04:07.652Z,13.80
2017-11-17T10:06:00.924Z,13.30
2017-11-17T10:07:00.862Z,22.30
2017-11-17T10:08:54.159Z,16.30
2017-11-17T10:09:54.078Z,16.90
2017-11-17T10:11:47.360Z,19.10
2017-11-17T10:12:47.291Z,15.70
2017-11-17T10:14:40.573Z,14.10
2017-11-17T10:15:40.493Z,11.60
2017-11-17T10:17:33.791Z,14.30
2017-11-17T10:18:33.710Z,11.50
2017-11-17T10:20:26.987Z,14.20
2017-11-17T10:21:26.927Z,18.00
2017-11-17T10:23:20.223Z,14.90
2017-11-17T10:24:20.144Z,12.00
2017-11-17T10:26:13.409Z,13.20
2017-11-17T10:27:13.346Z,14.70
2017-11-17T10:29:06.632Z,11.90
2017-11-17T10:30:06.580Z,14.80
2017-11-17T10:31:59.821Z,12.70
2017-11-17T10:32:59.761Z,14.90
2017-11-17T10:34:53.040Z,14.00
2017-11-17T10:35:52.962Z,14.20
2017-11-17T10:37:46.244Z,10.20
2017-11-17T10:38:46.164Z,10.70
2017-11-17T10:40:39.960Z,10.20
2017-11-17T10:41:39.360Z,15.20
2017-11-17T10:43:32.647Z,9.20
2017-11-17T10:44:32.561Z,9.90
2017-11-17T10:46:25.824Z,13.10
2017-11-17T10:47:25.761Z,14.70
2017-11-17T10:49:19.049Z,15.00
2017-11-17T10:50:18.955Z,9.90
2017-11-17T10:52:12.222Z,17.10
2017-11-17T10:53:12.157Z,14.80
2017-11-17T10:55:05.433Z,14.60
2017-11-17T10:56:05.353Z,12.00
2017-11-17T10:57:58.629Z,12.00
2017-11-17T10:58:58.549Z,14.50
2017-11-17T11:00:51.840Z,12.20
2017-11-17T11:01:51.752Z,13.00
2017-11-17T11:03:45.028Z,12.40
2017-11-17T11:04:44.947Z,12.50
2017-11-17T11:06:38.202Z,10.90
2017-11-17T11:07:38.133Z,13.00
2017-11-17T11:09:31.413Z,10.40
2017-11-17T11:10:31.328Z,10.20
2017-11-17T11:12:24.591Z,7.90
2017-11-17T11:13:24.527Z,13.20
2017-11-17T11:15:17.803Z,12.50
2017-11-17T11:16:17.723Z,11.60
2017-11-17T11:18:11.061Z,12.30
2017-11-17T11:19:10.916Z,10.90
2017-11-17T11:21:04.207Z,10.90
2017-11-17T11:22:04.109Z,9.60
2017-11-17T11:23:57.382Z,13.70
2017-11-17T11:24:57.298Z,12.20
2017-11-17T11:26:50.566Z,15.90
2017-11-17T11:27:50.499Z,16.90
2017-11-17T11:29:43.783Z,11.90
2017-11-17T11:30:43.692Z,12.30
2017-11-17T11:32:36.945Z,11.10
2017-11-17T11:33:36.876Z,11.20
2017-11-17T11:35:30.268Z,12.60
2017-11-17T11:36:30.075Z,14.20
2017-11-17T11:38:23.393Z,7.30
2017-11-17T11:39:23.308Z,9.10
2017-11-17T11:41:16.567Z,8.20
2017-11-17T11:42:16.497Z,14.20
2017-11-17T11:44:09.801Z,8.10
2017-11-17T11:45:09.717Z,8.70
2017-11-17T11:47:02.971Z,10.20
2017-11-17T11:48:02.904Z,15.10
2017-11-17T11:49:56.175Z,7.60
2017-11-17T11:50:56.087Z,7.90
2017-11-17T11:52:49.374Z,11.70
2017-11-17T11:53:49.306Z,12.80
2017-11-17T11:55:42.578Z,7.80
2017-11-17T11:56:42.492Z,8.80
2017-11-17T11:58:35.905Z,19.10
2017-11-17T11:59:35.681Z,11.50
2017-11-17T12:01:28.934Z,13.00
2017-11-17T12:02:28.888Z,10.10
2017-11-17T12:04:22.151Z,13.50
2017-11-17T12:05:22.068Z,11.80
2017-11-17T12:07:15.376Z,11.30
2017-11-17T12:08:15.306Z,8.60
2017-11-17T12:10:08.581Z,12.60
2017-11-17T12:11:08.494Z,9.60
2017-11-17T12:13:01.746Z,7.50
2017-11-17T12:14:01.683Z,8.30
2017-11-17T12:15:54.956Z,5.20
2017-11-17T12:16:54.866Z,9.80
2017-11-17T12:18:48.144Z,6.60
2017-11-17T12:19:48.076Z,12.10
2017-11-17T12:21:41.318Z,15.90
2017-11-17T12:22:41.246Z,11.60
2017-11-17T12:24:34.534Z,9.80
2017-11-17T12:25:34.447Z,7.50
2017-11-17T12:27:27.704Z,9.70
2017-11-17T12:28:27.647Z,8.40
2017-11-17T12:30:20.911Z,7.00
2017-11-17T12:31:20.828Z,5.20
2017-11-17T12:33:14.082Z,8.40
2017-11-17T12:34:14.014Z,12.00
2017-11-17T12:36:07.296Z,7.30
2017-11-17T12:37:07.210Z,12.20
2017-11-17T12:39:00.600Z,9.90
2017-11-17T12:40:00.425Z,7.20
2017-11-17T12:41:53.656Z,5.70
2017-11-17T12:42:53.591Z,6.40
2017-11-17T12:44:46.862Z,10.80
2017-11-17T12:45:46.777Z,10.30
2017-11-17T12:47:40.034Z,12.30
2017-11-17T12:48:39.963Z,6.60
2017-11-17T12:50:33.238Z,13.90
2017-11-17T12:51:33.156Z,11.40
2017-11-17T12:53:26.406Z,8.90
2017-11-17T12:54:26.340Z,5.20
2017-11-17T12:56:19.614Z,8.20
2017-11-17T12:57:19.527Z,6.90
2017-11-17T12:59:12.795Z,7.90
2017-11-17T13:00:12.708Z,7.50
2017-11-17T13:02:05.960Z,8.60
2017-11-17T13:03:05.894Z,10.90
2017-11-17T13:04:59.165Z,6.70
2017-11-17T13:05:59.081Z,8.30
2017-11-17T13:07:52.372Z,10.20
2017-11-17T13:08:52.299Z,7.30
2017-11-17T13:10:45.695Z,9.90
2017-11-17T13:11:45.490Z,7.70
2017-11-17T13:13:38.776Z,12.80
2017-11-17T13:14:38.713Z,9.40
2017-11-17T13:16:31.996Z,5.90
2017-11-17T13:17:31.909Z,9.30
2017-11-17T13:19:25.183Z,9.20
2017-11-17T13:20:25.096Z,9.80
2017-11-17T13:22:18.352Z,5.40
2017-11-17T13:23:18.285Z,6.30
2017-11-17T13:25:11.569Z,5.90
2017-11-17T13:26:11.487Z,4.90
2017-11-17T13:28:04.752Z,8.30
2017-11-17T13:29:04.683Z,6.00
2017-11-17T13:30:57.966Z,7.50
2017-11-17T13:31:57.884Z,8.50
2017-11-17T13:33:51.142Z,9.00
2017-11-17T13:34:51.088Z,6.20
2017-11-17T13:36:44.365Z,7.20
2017-11-17T13:37:44.283Z,10.90
2017-11-17T13:39:37.566Z,6.20
2017-11-17T13:40:37.466Z,6.00
2017-11-17T13:42:30.739Z,5.40
2017-11-17T13:43:30.672Z,6.70
2017-11-17T13:45:23.956Z,9.50
2017-11-17T13:46:23.874Z,8.10
2017-11-17T13:48:17.129Z,4.90
2017-11-17T13:49:17.048Z,6.80
2017-11-17T13:51:10.349Z,7.00
2017-11-17T13:52:10.259Z,8.00
2017-11-17T13:54:03.525Z,8.20
2017-11-17T13:55:03.457Z,10.90
2017-11-17T13:56:56.746Z,8.20
2017-11-17T13:57:56.654Z,5.80
2017-11-17T13:59:49.947Z,9.60
2017-11-17T14:00:49.840Z,8.60
2017-11-17T14:02:43.095Z,4.80
2017-11-17T14:03:43.026Z,6.80
2017-11-17T14:05:36.394Z,12.80
2017-11-17T14:06:36.303Z,14.00
2017-11-17T14:08:29.562Z,12.70
2017-11-17T14:09:29.500Z,10.00
2017-11-17T14:11:22.782Z,5.70
2017-11-17T14:12:22.696Z,7.80
2017-11-17T14:14:15.961Z,6.30
2017-11-17T14:15:15.891Z,10.60
2017-11-17T14:17:09.177Z,4.30
2017-11-17T14:18:09.089Z,7.80
2017-11-17T14:20:02.397Z,7.20
2017-11-17T14:21:02.300Z,8.20
2017-11-17T14:22:55.565Z,9.30
2017-11-17T14:23:55.497Z,7.10
2017-11-17T14:25:48.766Z,9.90
2017-11-17T14:26:48.681Z,9.60
2017-11-17T14:28:41.945Z,10.60
2017-11-17T14:29:41.879Z,11.30
2017-11-17T14:31:35.150Z,8.10
2017-11-17T14:32:35.063Z,7.50
2017-11-17T14:34:28.371Z,10.30
2017-11-17T14:35:28.302Z,7.00
2017-11-17T14:37:21.585Z,8.20
2017-11-17T14:38:21.498Z,5.40
2017-11-17T14:40:14.782Z,7.80
2017-11-17T14:41:14.697Z,7.80
2017-11-17T14:43:07.952Z,7.40
2017-11-17T14:44:07.885Z,7.50
2017-11-17T14:46:01.165Z,6.00
2017-11-17T14:47:01.081Z,4.90
2017-11-17T14:48:54.344Z,11.20
2017-11-17T14:49:54.275Z,8.20
2017-11-17T14:51:47.557Z,7.80
2017-11-17T14:52:47.470Z,6.50
2017-11-17T14:54:40.733Z,4.70
2017-11-17T14:55:40.691Z,8.50
2017-11-17T14:57:33.941Z,8.00
2017-11-17T14:58:33.859Z,6.90
2017-11-17T15:00:27.140Z,6.10
2017-11-17T15:01:27.057Z,7.60
2017-11-17T15:03:20.371Z,8.80
2017-11-17T15:04:20.302Z,9.30
2017-11-17T15:06:14.430Z,7.20
2017-11-17T15:07:14.344Z,5.70
2017-11-17T15:09:07.598Z,8.40
2017-11-17T15:10:07.530Z,7.80
2017-11-17T15:12:00.809Z,7.90
2017-11-17T15:13:00.722Z,7.80
2017-11-17T15:14:53.994Z,6.40
2017-11-17T15:15:53.918Z,7.00
2017-11-17T15:17:47.198Z,8.80
2017-11-17T15:18:47.100Z,9.80
2017-11-17T15:20:40.497Z,7.60
2017-11-17T15:21:40.295Z,5.90
2017-11-17T15:23:33.558Z,5.70
2017-11-17T15:24:33.491Z,6.80
2017-11-17T15:26:26.772Z,5.50
2017-11-17T15:27:26.682Z,4.40
2017-11-17T15:29:19.936Z,7.70
2017-11-17T15:30:19.872Z,4.90
2017-11-17T15:32:13.150Z,8.70
2017-11-17T15:33:13.064Z,5.60
2017-11-17T15:35:06.360Z,11.40
2017-11-17T15:36:06.291Z,10.20
2017-11-17T15:37:59.568Z,7.20
2017-11-17T15:38:59.485Z,11.30
2017-11-17T15:40:52.766Z,9.10
2017-11-17T15:41:52.676Z,11.00
2017-11-17T15:43:45.939Z,11.10
2017-11-17T15:44:45.869Z,15.60
2017-11-17T15:46:39.144Z,6.60
2017-11-17T15:47:39.061Z,9.90
2017-11-17T15:49:32.356Z,4.30
2017-11-17T15:50:32.300Z,3.90
2017-11-17T15:52:25.574Z,6.60
2017-11-17T15:53:25.485Z,5.40
2017-11-17T15:55:18.746Z,8.20
2017-11-17T15:56:18.678Z,9.60
2017-11-17T15:58:11.976Z,10.90
2017-11-17T15:59:11.864Z,12.70
2017-11-17T16:01:05.152Z,9.30
2017-11-17T16:02:05.074Z,8.50
2017-11-17T16:03:58.373Z,7.50
2017-11-17T16:04:58.303Z,11.10
2017-11-17T16:06:51.580Z,7.80
2017-11-17T16:07:51.491Z,8.00
2017-11-17T16:09:44.749Z,9.00
2017-11-17T16:10:44.680Z,7.20
2017-11-17T16:12:37.962Z,8.40
2017-11-17T16:13:37.876Z,5.40
2017-11-17T16:15:31.136Z,10.50
2017-11-17T16:16:31.067Z,12.50
2017-11-17T16:18:24.388Z,5.90
2017-11-17T16:19:24.301Z,4.90
2017-11-17T16:21:17.580Z,9.00
2017-11-17T16:22:17.494Z,9.00
2017-11-17T16:24:10.759Z,6.40
2017-11-17T16:25:10.691Z,8.80
2017-11-17T16:27:03.969Z,8.10
2017-11-17T16:28:03.876Z,9.30
2017-11-17T16:29:57.149Z,14.50
2017-11-17T16:30:57.078Z,10.90
2017-11-17T16:32:50.400Z,14.70
2017-11-17T16:33:50.301Z,7.60
2017-11-17T16:35:43.559Z,8.60
2017-11-17T16:36:43.492Z,11.70
2017-11-17T16:38:36.774Z,8.40
2017-11-17T16:39:36.683Z,6.20
2017-11-17T16:41:29.957Z,6.10
2017-11-17T16:42:29.874Z,6.20
2017-11-17T16:44:23.135Z,5.70
2017-11-17T16:45:23.089Z,6.40
2017-11-17T16:47:16.390Z,13.20
2017-11-17T16:48:16.301Z,13.00
2017-11-17T16:50:09.566Z,10.10
2017-11-17T16:51:09.492Z,9.70
2017-11-17T16:53:02.771Z,9.50
2017-11-17T16:54:02.682Z,9.80
2017-11-17T16:55:55.963Z,16.00
2017-11-17T16:56:55.873Z,11.90
2017-11-17T16:58:49.144Z,12.20
2017-11-17T16:59:49.052Z,17.50
2017-11-17T17:01:42.334Z,12.80
2017-11-17T17:02:42.240Z,16.10
2017-11-17T17:04:35.501Z,11.10
2017-11-17T17:05:35.432Z,10.80
2017-11-17T17:07:28.715Z,14.90
2017-11-17T17:08:28.626Z,10.50
2017-11-17T17:10:21.883Z,12.10
2017-11-17T17:11:21.814Z,11.10
2017-11-17T17:13:15.089Z,14.00
2017-11-17T17:14:15.010Z,11.30
2017-11-17T17:16:08.285Z,12.60
2017-11-17T17:17:08.196Z,13.50
2017-11-17T17:19:01.468Z,9.40
2017-11-17T17:20:01.376Z,15.10
2017-11-17T17:21:54.660Z,9.10
2017-11-17T17:22:54.566Z,11.60
2017-11-17T17:24:47.825Z,12.70
2017-11-17T17:25:47.756Z,13.40
2017-11-17T17:27:41.060Z,8.00
2017-11-17T17:28:40.954Z,10.50
2017-11-17T17:30:34.204Z,15.00
2017-11-17T17:31:34.136Z,11.40
2017-11-17T17:33:27.413Z,14.30
2017-11-17T17:34:27.325Z,13.90
2017-11-17T17:36:20.605Z,9.90
2017-11-17T17:37:20.515Z,9.50
2017-11-17T17:39:13.797Z,13.90
2017-11-17T17:40:13.695Z,10.70
2017-11-17T17:42:06.971Z,10.60
2017-11-17T17:43:06.880Z,15.80
2017-11-17T17:45:00.138Z,13.00
2017-11-17T17:46:00.074Z,9.70
2017-11-17T17:47:53.393Z,10.60
2017-11-17T17:48:53.300Z,10.50
2017-11-17T17:50:46.556Z,10.80
2017-11-17T17:51:46.488Z,9.10
2017-11-17T17:53:39.768Z,9.10
2017-11-17T17:54:39.678Z,12.70
2017-11-17T17:56:32.976Z,12.70
2017-11-17T17:57:32.871Z,16.50
2017-11-17T17:59:26.131Z,11.30
2017-11-17T18:00:26.063Z,13.30
2017-11-17T18:02:19.338Z,14.00
2017-11-17T18:03:19.252Z,16.10
2017-11-17T18:05:12.507Z,6.90
2017-11-17T18:06:12.437Z,8.80
2017-11-17T18:08:05.759Z,9.50
2017-11-17T18:09:05.628Z,10.80
2017-11-17T18:10:58.885Z,12.70
2017-11-17T18:11:58.813Z,13.30
2017-11-17T18:13:52.089Z,12.00
2017-11-17T18:14:52.002Z,8.50
2017-11-17T18:16:45.284Z,15.80
2017-11-17T18:17:45.193Z,10.80
2017-11-17T18:19:38.435Z,11.20
2017-11-17T18:20:38.373Z,14.70
2017-11-17T18:22:31.649Z,13.40
2017-11-17T18:23:31.574Z,10.70
2017-11-17T18:25:24.818Z,9.50
2017-11-17T18:26:24.755Z,17.80
2017-11-17T18:28:18.023Z,11.60
2017-11-17T18:29:17.938Z,17.00
2017-11-17T18:31:11.205Z,13.60
2017-11-17T18:32:11.174Z,14.90
2017-11-17T18:34:04.401Z,11.30
2017-11-17T18:35:04.311Z,10.70
2017-11-17T18:36:57.591Z,20.70
2017-11-17T18:37:57.501Z,17.10
2017-11-17T18:39:50.752Z,11.90
2017-11-17T18:40:50.671Z,11.10
2017-11-17T18:42:43.975Z,13.70